St Paul Downtown Holman Field St Paul US
ICAO: KSTP
IATA: STP
Category: Medium
Scheduled Services: No

Elevation: 705 ft
TransAlt. 18000 ft.

Airport Communications:
MINNEAPOLIS APP/DEP:121.2
ATIS:118.35
CTAF:119.1
GND/CLNC DEL:121.675
ARNG OPS:41.4
TWR:119.1
UNICOM:122.95

KSTP Zoom In..

Runways:

(A) RW 09 length 3642 ft width 100 ft
---- / hdg 88

(B) RW 13 length 4004 ft width 150 ft
---- / hdg 125

(C) RW 14 length 6491 ft width 150 ft
ILS 111.50 / hdg 143

(D) RW 27 length 3642 ft width 100 ft
---- / hdg 268

(E) RW 31 length 4004 ft width 150 ft
---- / hdg 305

(F) RW 32 length 6491 ft width 150 ft
ILS 111.50 / hdg 323

Location; KSTP
Day. 30 / Time. 21.53 Zulu
* Altimeter: 30.26
* Temperature: 19° c. 66.2°f.
* Wind from: 320° Speed 10 kn.
Dewpoint: 00° c.
Visibility: 10 Statute Miles.
Clouds: Clear (automated report).

KSTP 302153Z AUTO 32010KT 10SM CLR 19/00 A3026 RMK AO2 SLP243 T01940000


Wind From 320°
Speed 10 kn.

 
 
jpsmedia worldairports.se 2020   terms of use